Time;durP1;ratioP1;P1;durP2;ratioP2;P2;SDS_P1;SDS_P2;PMS_P1;PMS_P2;Temp;Humidity;BMP_temperature;BMP_pressure;BME280_temperature;BME280_humidity;BME280_pressure;Samples;Min_cycle;Max_cycle;Signal;HPM_P1;HPM_P2
2023/11/15 00:00:11;;;;;;;8.18;4.28;;;8.90;99.90;;;;;;5037727;28;20113;-84
2023/11/15 00:02:39;;;;;;;12.05;3.67;;;8.90;99.90;;;;;;4971265;28;20114;-84
2023/11/15 00:05:05;;;;;;;12.50;4.80;;;8.90;99.90;;;;;;4970946;28;20023;-79
2023/11/15 00:07:31;;;;;;;9.07;4.35;;;8.90;99.90;;;;;;5037974;28;20019;-78
2023/11/15 00:09:57;;;;;;;6.88;4.22;;;8.90;99.90;;;;;;5037615;28;20027;-79
2023/11/15 00:12:24;;;;;;;9.43;3.83;;;8.90;99.90;;;;;;5037515;28;20098;-84
2023/11/15 00:14:51;;;;;;;10.15;4.45;;;9.00;99.90;;;;;;4971059;28;20485;-84
2023/11/15 00:17:17;;;;;;;6.90;3.58;;;9.00;99.90;;;;;;5037809;28;20022;-83
2023/11/15 00:19:45;;;;;;;4.05;3.30;;;8.90;99.90;;;;;;5037916;28;20026;-83
2023/11/15 00:22:14;;;;;;;7.78;3.70;;;8.90;99.90;;;;;;5037403;28;20031;-78
2023/11/15 00:24:40;;;;;;;6.20;3.20;;;8.80;99.90;;;;;;5037506;28;20027;-78
2023/11/15 00:27:08;;;;;;;10.95;3.70;;;8.80;99.90;;;;;;5037609;28;20030;-78
2023/11/15 00:29:33;;;;;;;5.30;3.22;;;8.70;99.90;;;;;;5036490;28;20098;-82
2023/11/15 00:31:59;;;;;;;7.15;3.53;;;8.70;99.90;;;;;;4971008;28;20173;-82
2023/11/15 00:34:25;;;;;;;7.55;3.60;;;8.60;99.90;;;;;;5036884;28;20034;-78
2023/11/15 00:36:53;;;;;;;7.55;3.35;;;8.60;99.90;;;;;;5037287;28;20054;-77
2023/11/15 00:39:19;;;;;;;8.25;3.88;;;8.60;99.90;;;;;;5037111;28;20026;-77
2023/11/15 00:41:45;;;;;;;10.18;3.30;;;8.60;99.90;;;;;;5037365;28;20148;-77
2023/11/15 00:44:11;;;;;;;8.98;3.55;;;8.60;99.90;;;;;;5037231;28;20023;-79
2023/11/15 00:46:37;;;;;;;4.43;3.25;;;8.60;99.90;;;;;;5037879;28;20023;-77
2023/11/15 00:49:03;;;;;;;5.72;3.60;;;8.60;99.90;;;;;;5040905;28;20030;-82
2023/11/15 00:51:29;;;;;;;7.75;3.88;;;8.60;99.90;;;;;;5041304;28;20468;-83
2023/11/15 00:53:55;;;;;;;5.70;3.25;;;8.60;99.90;;;;;;5041058;28;20106;-82
2023/11/15 00:56:21;;;;;;;9.55;3.80;;;8.60;99.90;;;;;;5040917;28;20027;-82
2023/11/15 00:58:46;;;;;;;6.90;3.80;;;8.60;99.90;;;;;;5040956;28;20027;-83
2023/11/15 01:01:12;;;;;;;7.63;4.13;;;8.60;99.90;;;;;;4973640;28;20550;-77
2023/11/15 01:03:55;;;;;;;6.80;3.17;;;8.60;99.90;;;;;;5040844;28;20393;-83
2023/11/15 01:06:23;;;;;;;5.55;3.50;;;8.60;99.90;;;;;;4973714;28;20392;-78
2023/11/15 01:08:49;;;;;;;9.93;3.35;;;8.60;99.90;;;;;;5040992;28;20027;-77
2023/11/15 01:11:14;;;;;;;7.78;3.33;;;8.60;99.90;;;;;;5040697;28;20023;-83
2023/11/15 01:13:40;;;;;;;9.70;3.20;;;8.60;99.90;;;;;;5040935;28;20023;-83
2023/11/15 01:16:06;;;;;;;7.63;3.65;;;8.60;99.90;;;;;;4973606;28;20084;-78
2023/11/15 01:18:33;;;;;;;9.40;3.38;;;8.60;99.90;;;;;;5040848;28;20015;-83
2023/11/15 01:20:59;;;;;;;10.43;3.88;;;8.60;99.90;;;;;;4973334;28;20083;-83
2023/11/15 01:23:25;;;;;;;9.55;3.88;;;8.50;99.90;;;;;;5040668;28;20031;-78
2023/11/15 01:25:51;;;;;;;5.32;3.42;;;8.50;99.90;;;;;;4973401;28;20029;-83
2023/11/15 01:28:17;;;;;;;7.43;3.33;;;8.50;99.90;;;;;;5037011;28;20115;-83
2023/11/15 01:30:42;;;;;;;5.05;2.85;;;8.50;99.90;;;;;;5034857;28;20049;-78
2023/11/15 01:33:09;;;;;;;7.47;3.50;;;8.40;99.90;;;;;;5040119;28;20023;-75
2023/11/15 01:35:35;;;;;;;4.25;2.95;;;8.40;99.90;;;;;;5032668;28;20033;-76
2023/11/15 01:38:02;;;;;;;8.77;3.00;;;8.40;99.90;;;;;;5040134;28;20102;-75
2023/11/15 01:40:33;;;;;;;10.95;3.25;;;8.40;99.90;;;;;;5040114;28;20035;-75
2023/11/15 01:42:59;;;;;;;7.03;3.58;;;8.30;99.90;;;;;;4973434;28;20361;-82
2023/11/15 01:45:25;;;;;;;6.20;3.40;;;8.30;99.90;;;;;;4973003;28;20023;-76
2023/11/15 01:47:51;;;;;;;9.80;3.53;;;8.30;99.90;;;;;;4973399;28;20031;-76
2023/11/15 01:50:18;;;;;;;4.95;2.75;;;8.30;99.90;;;;;;4973016;28;20027;-75
2023/11/15 01:52:47;;;;;;;7.20;3.08;;;8.30;99.90;;;;;;4973125;28;20027;-76
2023/11/15 01:55:21;;;;;;;4.80;3.10;;;8.30;99.90;;;;;;5018944;28;20058;-82
2023/11/15 01:57:47;;;;;;;4.85;2.95;;;8.20;99.90;;;;;;4972565;28;20536;-76
2023/11/15 02:00:15;;;;;;;4.88;2.78;;;8.20;99.90;;;;;;5039942;28;20039;-76
2023/11/15 02:02:41;;;;;;;5.68;3.00;;;8.20;99.90;;;;;;5039511;28;20095;-76
2023/11/15 02:05:09;;;;;;;6.18;3.50;;;8.20;99.90;;;;;;4972354;28;20042;-82
2023/11/15 02:07:38;;;;;;;6.93;3.40;;;8.20;99.90;;;;;;4972963;28;20030;-82
2023/11/15 02:10:06;;;;;;;8.10;3.10;;;8.10;99.90;;;;;;5017072;28;20031;-77
2023/11/15 02:12:33;;;;;;;7.00;3.47;;;8.10;99.90;;;;;;4972537;28;20019;-81
2023/11/15 02:14:59;;;;;;;7.55;3.10;;;8.10;99.90;;;;;;5039688;28;20114;-81
2023/11/15 02:17:26;;;;;;;5.68;2.83;;;8.00;99.90;;;;;;5039527;28;20022;-81
2023/11/15 02:19:51;;;;;;;5.90;3.55;;;8.00;99.90;;;;;;5039531;28;20035;-76
2023/11/15 02:22:18;;;;;;;6.25;3.55;;;7.90;99.90;;;;;;5039206;28;20030;-77
2023/11/15 02:24:44;;;;;;;5.05;3.42;;;7.80;99.90;;;;;;4972810;28;20023;-81
2023/11/15 02:27:13;;;;;;;7.13;2.58;;;7.80;99.90;;;;;;5039098;28;20023;-81
2023/11/15 02:29:39;;;;;;;5.90;3.17;;;7.70;99.90;;;;;;4972824;28;20046;-82
2023/11/15 02:32:06;;;;;;;7.15;3.15;;;7.70;99.90;;;;;;4972428;28;20070;-82
2023/11/15 02:34:32;;;;;;;4.10;3.22;;;7.60;99.90;;;;;;5039211;28;20423;-81
2023/11/15 02:36:58;;;;;;;5.82;3.78;;;7.60;99.90;;;;;;5039325;28;20065;-77
2023/11/15 02:39:24;;;;;;;6.40;4.03;;;7.60;99.90;;;;;;5039242;28;20023;-77
2023/11/15 02:41:49;;;;;;;10.18;5.18;;;7.50;99.90;;;;;;5039106;28;20031;-77
2023/11/15 02:44:15;;;;;;;6.35;4.32;;;7.50;99.90;;;;;;5038944;28;20035;-77
2023/11/15 02:46:41;;;;;;;8.52;4.05;;;7.40;99.90;;;;;;5037731;28;20038;-77
2023/11/15 02:49:07;;;;;;;5.93;4.25;;;7.40;99.90;;;;;;4971747;28;20031;-77
2023/11/15 02:51:32;;;;;;;8.00;4.43;;;7.40;99.90;;;;;;5038809;28;20098;-77
2023/11/15 02:53:58;;;;;;;10.20;5.28;;;7.30;99.90;;;;;;5042500;28;20046;-77
2023/11/15 02:56:24;;;;;;;9.30;5.63;;;7.30;99.90;;;;;;5026559;28;20011;-82
2023/11/15 02:58:51;;;;;;;8.10;5.00;;;7.20;99.90;;;;;;4972361;28;20031;-82
2023/11/15 03:01:17;;;;;;;6.90;4.95;;;7.20;99.90;;;;;;4971733;28;20035;-82
2023/11/15 03:03:43;;;;;;;7.97;5.20;;;7.10;99.90;;;;;;5038760;28;20015;-76
2023/11/15 03:06:09;;;;;;;6.20;5.13;;;7.10;99.90;;;;;;5038449;28;20023;-82
2023/11/15 03:08:36;;;;;;;7.15;5.00;;;7.10;99.90;;;;;;5038830;28;20018;-77
2023/11/15 03:11:02;;;;;;;10.45;6.45;;;7.10;99.90;;;;;;5037728;28;20085;-77
2023/11/15 03:13:27;;;;;;;10.35;5.45;;;7.00;99.90;;;;;;5035531;28;20562;-82
2023/11/15 03:15:53;;;;;;;10.68;5.65;;;7.00;99.90;;;;;;4971825;28;20358;-82
2023/11/15 03:18:19;;;;;;;10.15;5.63;;;7.00;99.90;;;;;;5038760;28;20494;-82
2023/11/15 03:20:44;;;;;;;9.30;5.47;;;6.90;99.90;;;;;;4968501;28;20369;-77
2023/11/15 03:23:10;;;;;;;7.40;5.72;;;6.90;99.90;;;;;;4971890;28;20031;-82
2023/11/15 03:25:37;;;;;;;11.13;6.90;;;6.90;99.90;;;;;;5038263;28;20019;-82
2023/11/15 03:28:03;;;;;;;6.13;5.50;;;6.80;99.90;;;;;;5038400;28;20031;-82
2023/11/15 03:30:31;;;;;;;10.95;6.07;;;6.90;99.90;;;;;;5038143;28;20532;-77
2023/11/15 03:32:56;;;;;;;9.55;6.18;;;6.80;99.90;;;;;;5038021;28;20026;-83
2023/11/15 03:35:22;;;;;;;6.60;5.80;;;6.80;99.90;;;;;;4971515;28;20030;-76
2023/11/15 03:37:49;;;;;;;11.63;6.35;;;6.80;99.90;;;;;;4971654;28;20130;-77
2023/11/15 03:40:15;;;;;;;9.90;6.05;;;6.80;99.90;;;;;;4971352;28;20027;-76
2023/11/15 03:42:41;;;;;;;7.40;6.03;;;6.70;99.90;;;;;;5038186;28;20027;-83
2023/11/15 03:45:09;;;;;;;8.27;5.88;;;6.70;99.90;;;;;;4971179;28;20026;-81
2023/11/15 03:47:36;;;;;;;7.00;6.22;;;6.70;99.90;;;;;;4971489;28;20117;-77
2023/11/15 03:50:04;;;;;;;8.95;6.45;;;6.60;99.90;;;;;;4971270;28;20102;-83
2023/11/15 03:52:30;;;;;;;6.45;5.70;;;6.60;99.90;;;;;;5038174;28;20088;-77
2023/11/15 03:54:56;;;;;;;9.75;5.45;;;6.60;99.90;;;;;;5037838;28;20026;-82
2023/11/15 03:57:21;;;;;;;7.63;5.85;;;6.60;99.90;;;;;;5037935;28;20123;-76
2023/11/15 03:59:47;;;;;;;6.72;6.00;;;6.60;99.90;;;;;;5037738;28;20053;-82
2023/11/15 04:02:13;;;;;;;6.95;5.43;;;6.60;99.90;;;;;;5037582;28;20184;-82
2023/11/15 04:04:39;;;;;;;6.03;5.40;;;6.60;99.90;;;;;;5037556;28;20060;-82
2023/11/15 04:07:05;;;;;;;7.18;5.35;;;6.60;99.90;;;;;;5037592;28;20031;-82
2023/11/15 04:09:34;;;;;;;6.82;5.40;;;6.60;99.90;;;;;;5037709;28;20019;-76
2023/11/15 04:12:00;;;;;;;6.68;5.18;;;6.60;99.90;;;;;;5037588;28;20031;-77
2023/11/15 04:14:25;;;;;;;6.57;5.60;;;6.50;99.90;;;;;;5037876;28;20030;-77
2023/11/15 04:16:52;;;;;;;7.28;5.47;;;6.50;99.90;;;;;;5037542;28;20023;-82
2023/11/15 04:19:21;;;;;;;8.98;5.50;;;6.50;99.90;;;;;;4971050;28;20023;-76
2023/11/15 04:21:50;;;;;;;5.70;4.90;;;6.50;99.90;;;;;;4970541;28;20041;-77
2023/11/15 04:24:17;;;;;;;5.35;4.85;;;6.50;99.90;;;;;;5037373;28;20019;-77
2023/11/15 04:26:44;;;;;;;6.97;5.10;;;6.50;99.90;;;;;;4971181;28;20102;-77
2023/11/15 04:29:10;;;;;;;5.25;4.45;;;6.40;99.90;;;;;;5037432;28;20019;-77
2023/11/15 04:31:36;;;;;;;4.88;4.38;;;6.50;99.90;;;;;;5037199;28;20498;-77
2023/11/15 04:34:02;;;;;;;5.50;5.00;;;6.40;99.90;;;;;;5037262;28;20114;-77
2023/11/15 04:36:32;;;;;;;6.15;4.45;;;6.40;99.90;;;;;;4970929;28;20109;-83
2023/11/15 04:38:58;;;;;;;6.90;4.50;;;6.40;99.90;;;;;;5037453;28;20023;-83
2023/11/15 04:41:24;;;;;;;8.20;5.13;;;6.40;99.90;;;;;;4970474;28;20043;-76
2023/11/15 04:43:50;;;;;;;6.35;4.70;;;6.40;99.90;;;;;;4970637;28;20465;-77
2023/11/15 04:46:16;;;;;;;5.30;4.53;;;6.30;99.90;;;;;;5037487;28;20018;-77
2023/11/15 04:48:42;;;;;;;5.72;4.35;;;6.30;99.90;;;;;;4970770;28;20023;-77
2023/11/15 04:51:07;;;;;;;4.93;3.80;;;6.30;99.90;;;;;;4970465;28;20409;-83
2023/11/15 04:53:33;;;;;;;5.15;4.32;;;6.30;99.90;;;;;;5024859;28;20092;-83
2023/11/15 04:56:02;;;;;;;5.13;4.20;;;6.30;99.90;;;;;;4970455;28;20050;-83
2023/11/15 04:58:28;;;;;;;6.00;4.95;;;6.30;99.90;;;;;;5025239;28;20019;-77
2023/11/15 05:00:53;;;;;;;6.93;5.43;;;6.30;99.90;;;;;;5036916;28;20035;-77
2023/11/15 05:03:20;;;;;;;6.25;4.32;;;6.30;99.90;;;;;;5037644;28;20058;-77
2023/11/15 05:05:45;;;;;;;6.22;4.95;;;6.30;99.90;;;;;;5037015;28;20515;-77
2023/11/15 05:08:11;;;;;;;5.88;4.85;;;6.30;99.90;;;;;;5037373;28;20023;-77
2023/11/15 05:10:37;;;;;;;8.95;5.72;;;6.30;99.90;;;;;;5036744;28;20031;-77
2023/11/15 05:13:04;;;;;;;7.40;6.32;;;6.30;99.90;;;;;;5037161;28;20030;-81
2023/11/15 05:15:31;;;;;;;10.40;6.75;;;6.30;99.90;;;;;;4970255;28;20018;-76
2023/11/15 05:17:57;;;;;;;10.95;7.68;;;6.30;99.90;;;;;;4970358;28;20050;-81
2023/11/15 05:20:24;;;;;;;10.13;6.47;;;6.20;99.90;;;;;;5036638;28;20069;-77
2023/11/15 05:22:50;;;;;;;12.98;6.10;;;6.20;99.90;;;;;;5037006;28;20030;-78
2023/11/15 05:25:16;;;;;;;8.60;6.45;;;6.20;99.90;;;;;;5036914;28;20024;-77
2023/11/15 05:27:42;;;;;;;8.85;6.05;;;6.20;99.90;;;;;;5037194;28;20027;-83
2023/11/15 05:30:08;;;;;;;9.68;6.45;;;6.20;99.90;;;;;;5036609;28;20027;-83
2023/11/15 05:32:34;;;;;;;8.75;6.00;;;6.10;99.90;;;;;;5037244;28;20026;-82
2023/11/15 05:35:00;;;;;;;9.65;6.90;;;6.20;99.90;;;;;;4973333;28;20475;-83
2023/11/15 05:37:26;;;;;;;10.35;6.82;;;6.10;99.90;;;;;;4973431;28;20057;-77
2023/11/15 05:39:51;;;;;;;11.73;6.75;;;6.10;99.90;;;;;;5040090;28;20051;-83
2023/11/15 05:42:17;;;;;;;10.73;6.60;;;6.10;99.90;;;;;;4973449;28;20039;-82
2023/11/15 05:44:42;;;;;;;10.45;6.90;;;6.10;99.90;;;;;;4972966;28;20365;-83
2023/11/15 05:47:08;;;;;;;12.35;6.97;;;6.10;99.90;;;;;;4973202;28;20026;-77
2023/11/15 05:49:34;;;;;;;7.20;6.28;;;6.10;99.90;;;;;;4973169;28;20019;-77
2023/11/15 05:52:00;;;;;;;9.48;6.90;;;6.10;99.90;;;;;;5040140;28;20030;-83
2023/11/15 05:54:27;;;;;;;9.73;6.93;;;6.00;99.90;;;;;;4960596;28;20552;-77
2023/11/15 05:56:53;;;;;;;11.45;6.75;;;6.10;99.90;;;;;;5039849;28;20034;-82
2023/11/15 05:59:19;;;;;;;10.05;7.25;;;6.00;99.90;;;;;;5040148;28;20019;-77
2023/11/15 06:01:45;;;;;;;11.18;7.90;;;6.00;99.90;;;;;;5039768;28;20137;-83
2023/11/15 06:04:11;;;;;;;9.15;6.40;;;6.00;99.90;;;;;;5039325;28;20081;-77
2023/11/15 06:06:36;;;;;;;8.07;6.10;;;6.00;99.90;;;;;;5039690;28;20026;-83
2023/11/15 06:09:04;;;;;;;7.78;6.00;;;6.00;99.90;;;;;;5037871;28;20441;-82
2023/11/15 06:11:30;;;;;;;8.88;6.88;;;6.00;99.90;;;;;;5035121;28;20110;-77
2023/11/15 06:13:56;;;;;;;9.00;5.70;;;6.00;99.90;;;;;;5038222;28;20027;-77
2023/11/15 06:16:24;;;;;;;9.10;6.75;;;6.00;99.90;;;;;;4970650;28;20679;-83
2023/11/15 06:18:51;;;;;;;10.05;7.68;;;5.90;99.90;;;;;;5037601;28;20027;-77
2023/11/15 06:21:18;;;;;;;11.57;8.52;;;6.00;99.90;;;;;;5037321;28;20134;-76
2023/11/15 06:23:44;;;;;;;14.40;9.50;;;5.90;99.90;;;;;;5037338;28;20023;-77
2023/11/15 06:26:11;;;;;;;12.88;8.80;;;5.90;99.90;;;;;;5037228;28;20038;-77
2023/11/15 06:28:37;;;;;;;15.55;9.30;;;5.90;99.90;;;;;;5037379;28;20027;-83
2023/11/15 06:31:04;;;;;;;17.75;10.00;;;5.90;99.90;;;;;;4971665;28;20038;-83
2023/11/15 06:33:31;;;;;;;15.27;9.48;;;5.90;99.90;;;;;;4971882;28;20019;-76
2023/11/15 06:35:56;;;;;;;12.25;9.10;;;5.90;99.90;;;;;;4970440;28;20065;-83
2023/11/15 06:38:22;;;;;;;17.83;10.57;;;5.90;99.90;;;;;;4970440;28;20598;-83
2023/11/15 06:40:49;;;;;;;14.35;9.30;;;5.90;99.90;;;;;;5036807;28;20039;-83
2023/11/15 06:43:14;;;;;;;14.48;10.10;;;5.90;99.90;;;;;;4970205;28;20022;-77
2023/11/15 06:45:40;;;;;;;17.45;11.25;;;5.90;99.90;;;;;;5053650;28;20031;-77
2023/11/15 06:48:07;;;;;;;13.95;9.88;;;5.90;99.90;;;;;;5034291;28;20042;-77
2023/11/15 06:50:34;;;;;;;17.85;10.70;;;5.90;99.90;;;;;;4972196;28;20027;-77
2023/11/15 06:53:00;;;;;;;19.42;11.73;;;5.90;99.90;;;;;;5038717;28;20373;-83
2023/11/15 06:55:26;;;;;;;18.77;12.55;;;5.90;99.90;;;;;;5039139;28;20049;-77
2023/11/15 06:57:52;;;;;;;24.92;14.45;;;6.00;99.90;;;;;;5038871;28;20023;-77
2023/11/15 07:00:18;;;;;;;23.55;12.88;;;5.90;99.90;;;;;;4972086;28;20027;-77
2023/11/15 07:02:45;;;;;;;24.17;12.93;;;5.90;99.90;;;;;;5036085;28;20554;-83
2023/11/15 07:05:11;;;;;;;24.83;12.88;;;6.00;99.90;;;;;;5038859;28;20046;-83
2023/11/15 07:07:37;;;;;;;20.10;12.35;;;5.90;99.90;;;;;;5038626;28;20531;-77
2023/11/15 07:10:06;;;;;;;22.48;13.50;;;5.90;99.90;;;;;;5038955;28;20022;-77
2023/11/15 07:12:35;;;;;;;28.35;13.23;;;5.90;99.90;;;;;;5038750;28;20038;-77
2023/11/15 07:15:07;;;;;;;22.80;13.02;;;6.00;99.90;;;;;;5038567;28;20350;-77
2023/11/15 07:17:32;;;;;;;20.70;12.82;;;5.90;99.90;;;;;;5033232;28;20465;-83
2023/11/15 07:19:58;;;;;;;23.20;12.45;;;5.90;99.90;;;;;;4965690;28;20023;-83
2023/11/15 07:22:24;;;;;;;21.15;11.75;;;6.00;99.90;;;;;;5035855;28;20488;-77
2023/11/15 07:24:51;;;;;;;25.45;12.35;;;6.00;99.90;;;;;;5038342;28;20511;-77
2023/11/15 07:27:17;;;;;;;21.80;12.50;;;6.00;99.90;;;;;;4969493;28;20046;-77
2023/11/15 07:29:45;;;;;;;22.00;12.40;;;6.00;99.90;;;;;;5038412;28;20050;-85
2023/11/15 07:32:11;;;;;;;20.33;11.90;;;6.00;99.90;;;;;;4970065;28;20110;-77
2023/11/15 07:34:39;;;;;;;14.73;10.48;;;6.00;99.90;;;;;;5035461;28;20027;-77
2023/11/15 07:37:04;;;;;;;14.50;9.05;;;6.00;99.90;;;;;;5036103;28;20491;-77
2023/11/15 07:39:31;;;;;;;12.95;8.82;;;6.10;99.90;;;;;;5036285;28;20035;-77
2023/11/15 07:42:00;;;;;;;12.98;8.60;;;6.10;99.90;;;;;;5036932;28;20027;-77
2023/11/15 07:44:26;;;;;;;11.30;7.85;;;6.20;99.90;;;;;;5037120;28;20034;-77
2023/11/15 07:46:54;;;;;;;12.23;8.63;;;6.20;99.90;;;;;;5036379;28;20050;-78
2023/11/15 07:49:23;;;;;;;12.98;7.55;;;6.30;99.90;;;;;;4970364;28;20027;-77
2023/11/15 07:51:49;;;;;;;14.43;8.10;;;6.30;99.90;;;;;;5037004;28;20027;-78
2023/11/15 07:54:15;;;;;;;15.07;9.02;;;6.30;99.90;;;;;;5040649;28;20469;-77
2023/11/15 07:56:42;;;;;;;14.10;9.50;;;6.30;99.90;;;;;;5026385;28;20152;-77
2023/11/15 07:59:07;;;;;;;16.42;9.48;;;6.30;99.90;;;;;;5036757;28;20042;-77
2023/11/15 08:01:33;;;;;;;16.25;9.85;;;6.40;99.90;;;;;;5050095;28;20041;-77
2023/11/15 08:04:01;;;;;;;18.85;11.43;;;6.30;99.90;;;;;;5050625;28;20053;-77
2023/11/15 08:06:27;;;;;;;17.90;11.05;;;6.40;99.90;;;;;;5049470;28;20470;-77
2023/11/15 08:08:54;;;;;;;15.10;9.18;;;6.40;99.90;;;;;;5051395;28;20035;-77
2023/11/15 08:11:22;;;;;;;17.38;9.70;;;6.40;99.90;;;;;;5048491;28;20017;-83
2023/11/15 08:13:47;;;;;;;14.73;9.23;;;6.40;99.90;;;;;;5050547;28;20060;-77
2023/11/15 08:16:16;;;;;;;12.05;9.18;;;6.40;99.90;;;;;;5040358;28;20470;-77
2023/11/15 08:18:42;;;;;;;12.90;8.45;;;6.40;99.90;;;;;;5047207;28;20032;-77
2023/11/15 08:21:12;;;;;;;12.82;8.43;;;6.30;99.90;;;;;;5043360;28;20049;-77
2023/11/15 08:23:38;;;;;;;12.18;8.57;;;6.30;99.90;;;;;;5043809;28;20033;-77
2023/11/15 08:26:04;;;;;;;12.50;8.32;;;6.30;99.90;;;;;;5046790;28;20398;-76
2023/11/15 08:28:33;;;;;;;12.27;8.55;;;6.30;99.90;;;;;;5048238;28;20029;-77
2023/11/15 08:30:59;;;;;;;14.75;9.90;;;6.30;99.90;;;;;;5047187;28;20483;-77
2023/11/15 08:33:26;;;;;;;12.68;8.80;;;6.30;99.90;;;;;;5049545;28;20021;-77
2023/11/15 08:35:54;;;;;;;12.88;9.05;;;6.30;99.90;;;;;;5048952;28;20040;-77
2023/11/15 08:38:24;;;;;;;10.90;7.65;;;6.40;99.90;;;;;;5048229;28;20024;-77
2023/11/15 08:40:51;;;;;;;11.50;8.45;;;6.30;99.90;;;;;;5048300;28;20040;-77
2023/11/15 08:43:19;;;;;;;11.85;8.90;;;6.30;99.90;;;;;;5046442;28;20021;-77
2023/11/15 08:45:46;;;;;;;11.85;9.00;;;6.40;99.90;;;;;;5048753;28;20060;-76
2023/11/15 08:48:13;;;;;;;13.25;9.27;;;6.40;99.90;;;;;;5031558;28;20475;-77
2023/11/15 08:50:46;;;;;;;13.90;8.60;;;6.40;99.90;;;;;;5049384;28;20387;-76
2023/11/15 08:53:12;;;;;;;13.73;8.50;;;6.40;99.90;;;;;;5049052;28;20471;-76
2023/11/15 08:55:44;;;;;;;11.05;8.35;;;6.40;99.90;;;;;;5050690;28;20029;-77
2023/11/15 08:58:14;;;;;;;12.75;8.68;;;6.40;99.90;;;;;;5048895;28;20017;-77
2023/11/15 09:00:40;;;;;;;10.10;7.50;;;6.40;99.90;;;;;;5048948;28;20402;-77
2023/11/15 09:03:06;;;;;;;9.07;6.35;;;6.40;99.90;;;;;;4969827;28;20112;-76
2023/11/15 09:05:33;;;;;;;9.00;6.15;;;6.40;99.90;;;;;;4948287;28;20114;-77
2023/11/15 09:08:00;;;;;;;6.10;4.53;;;6.40;99.90;;;;;;4950716;28;20045;-77
2023/11/15 09:10:27;;;;;;;8.95;5.13;;;6.40;99.90;;;;;;4952653;28;20084;-77
2023/11/15 09:12:54;;;;;;;6.45;4.75;;;6.50;99.90;;;;;;4952896;28;20089;-77
2023/11/15 09:15:22;;;;;;;4.82;4.25;;;6.50;99.90;;;;;;4952943;28;20046;-77
2023/11/15 09:17:50;;;;;;;8.10;4.30;;;6.50;99.90;;;;;;4952761;28;20413;-77
2023/11/15 09:20:20;;;;;;;4.40;4.00;;;6.50;99.90;;;;;;4953768;28;20027;-77
2023/11/15 09:22:49;;;;;;;4.03;3.63;;;6.50;99.90;;;;;;4963801;28;20059;-77
2023/11/15 09:25:21;;;;;;;6.03;4.38;;;6.50;99.90;;;;;;4947238;28;20481;-76
2023/11/15 09:27:48;;;;;;;4.90;3.42;;;6.60;99.90;;;;;;4952748;28;20062;-77
2023/11/15 09:30:14;;;;;;;4.55;3.35;;;6.60;99.90;;;;;;4952518;28;20019;-77
2023/11/15 09:32:42;;;;;;;3.42;3.13;;;6.60;99.90;;;;;;4952648;28;20085;-77
2023/11/15 09:35:14;;;;;;;4.43;3.42;;;6.60;99.90;;;;;;4952791;28;20069;-77
2023/11/15 09:37:42;;;;;;;6.70;4.68;;;6.60;99.90;;;;;;4952809;28;20481;-77
2023/11/15 09:40:11;;;;;;;5.82;3.67;;;6.60;99.90;;;;;;4952624;28;20049;-77
2023/11/15 09:42:49;;;;;;;6.65;4.03;;;6.60;99.90;;;;;;4952082;28;20019;-77
2023/11/15 09:45:17;;;;;;;4.95;4.10;;;6.50;99.90;;;;;;4952634;28;20151;-78
2023/11/15 09:47:58;;;;;;;5.60;3.72;;;6.60;99.90;;;;;;4952809;28;20489;-77
2023/11/15 09:50:26;;;;;;;6.10;4.50;;;6.60;99.90;;;;;;4952589;28;20065;-77
2023/11/15 09:52:54;;;;;;;5.82;3.95;;;6.60;99.90;;;;;;4951883;28;20039;-77
2023/11/15 09:55:23;;;;;;;5.10;4.57;;;6.60;99.90;;;;;;4951504;28;20366;-77
2023/11/15 09:57:51;;;;;;;4.80;3.92;;;6.60;99.90;;;;;;4952393;28;20027;-77
2023/11/15 10:00:21;;;;;;;5.30;4.80;;;6.60;99.90;;;;;;4952154;28;20552;-78
2023/11/15 10:02:48;;;;;;;15.95;9.18;;;6.60;99.90;;;;;;4965959;28;20054;-78
2023/11/15 10:05:23;;;;;;;9.20;6.15;;;6.60;99.90;;;;;;5039451;28;20115;-78
2023/11/15 10:07:52;;;;;;;10.77;8.07;;;6.60;99.90;;;;;;5039603;28;20022;-84
2023/11/15 10:10:19;;;;;;;7.60;5.53;;;6.60;99.90;;;;;;5039778;28;20547;-84
2023/11/15 10:12:46;;;;;;;4.05;2.95;;;6.70;99.90;;;;;;4972994;28;20034;-79
2023/11/15 10:15:13;;;;;;;5.32;3.75;;;6.70;99.90;;;;;;5039611;28;20213;-78
2023/11/15 10:17:45;;;;;;;4.85;3.60;;;6.70;99.90;;;;;;4972873;28;20015;-78
2023/11/15 10:20:22;;;;;;;7.50;4.45;;;6.70;99.90;;;;;;5038969;28;20034;-78
2023/11/15 10:22:48;;;;;;;5.35;3.65;;;6.70;99.90;;;;;;5039633;28;20484;-78
2023/11/15 10:25:14;;;;;;;4.13;3.60;;;6.80;99.90;;;;;;5039540;28;20030;-85
2023/11/15 10:27:41;;;;;;;3.50;3.20;;;6.80;99.90;;;;;;4972803;28;20033;-85
2023/11/15 10:30:12;;;;;;;4.72;3.95;;;6.80;99.90;;;;;;5039485;28;20030;-85
2023/11/15 10:32:40;;;;;;;2.95;2.75;;;6.80;99.90;;;;;;4976663;28;20023;-78
2023/11/15 10:35:08;;;;;;;7.10;5.43;;;6.80;99.90;;;;;;4971738;28;20023;-84
2023/11/15 10:37:54;;;;;;;4.90;4.38;;;6.80;99.90;;;;;;4971941;28;20357;-79
2023/11/15 10:40:25;;;;;;;5.90;5.30;;;6.80;99.90;;;;;;5053144;28;20043;-79
2023/11/15 10:42:52;;;;;;;6.18;5.57;;;6.80;99.90;;;;;;5022516;28;20039;-79
2023/11/15 10:45:22;;;;;;;9.75;7.57;;;6.80;99.90;;;;;;5037679;28;20496;-78
2023/11/15 10:48:05;;;;;;;12.90;10.30;;;6.80;99.90;;;;;;5038741;28;20030;-85
2023/11/15 10:50:33;;;;;;;14.93;12.27;;;6.80;99.90;;;;;;5038191;28;20029;-78
2023/11/15 10:53:01;;;;;;;75.93;47.92;;;6.80;99.90;;;;;;5040103;28;20099;-85
2023/11/15 10:55:28;;;;;;;25.50;17.45;;;6.90;99.90;;;;;;5015425;28;20025;-84
2023/11/15 10:57:59;;;;;;;22.92;15.90;;;6.90;99.90;;;;;;5021008;28;20034;-78
2023/11/15 11:00:29;;;;;;;19.63;13.30;;;6.90;99.90;;;;;;5016897;28;20504;-77
2023/11/15 11:02:56;;;;;;;9.57;7.00;;;7.00;99.90;;;;;;5005356;28;20051;-77
2023/11/15 11:05:34;;;;;;;5.70;4.95;;;7.00;99.90;;;;;;5042308;28;20812;-78
2023/11/15 11:08:05;;;;;;;14.32;10.82;;;7.00;99.90;;;;;;5038730;28;20446;-77
2023/11/15 11:10:41;;;;;;;8.55;7.35;;;7.00;99.90;;;;;;5038020;28;20058;-78
2023/11/15 11:13:18;;;;;;;11.63;9.10;;;7.00;99.90;;;;;;5022575;28;20546;-77
2023/11/15 11:15:45;;;;;;;7.72;6.03;;;7.00;99.90;;;;;;5038231;28;20051;-78
2023/11/15 11:18:15;;;;;;;8.73;5.13;;;7.00;99.90;;;;;;5037447;28;20478;-78
2023/11/15 11:20:54;;;;;;;8.98;7.13;;;7.10;99.90;;;;;;4971583;28;20066;-78
2023/11/15 11:23:21;;;;;;;4.97;4.22;;;7.30;99.90;;;;;;5038181;28;20029;-78
2023/11/15 11:25:48;;;;;;;9.85;6.88;;;7.40;99.90;;;;;;5038227;28;20059;-77
2023/11/15 11:28:15;;;;;;;6.85;5.10;;;7.40;99.90;;;;;;5037860;28;20027;-79
2023/11/15 11:30:42;;;;;;;7.57;6.43;;;7.40;99.90;;;;;;5037596;28;20023;-79
2023/11/15 11:33:13;;;;;;;12.18;8.07;;;7.50;99.90;;;;;;5037741;28;20476;-80
2023/11/15 11:35:42;;;;;;;5.72;4.47;;;7.60;99.90;;;;;;5038353;28;20038;-79
2023/11/15 11:38:11;;;;;;;7.18;4.95;;;7.60;99.90;;;;;;5037668;28;20488;-78
2023/11/15 11:40:42;;;;;;;13.38;8.90;;;7.70;99.90;;;;;;5034849;28;20082;-78
2023/11/15 11:43:29;;;;;;;8.90;4.22;;;7.70;99.90;;;;;;5035628;28;20026;-78
2023/11/15 11:45:56;;;;;;;8.95;5.15;;;7.70;99.90;;;;;;5038420;28;20483;-78
2023/11/15 11:48:23;;;;;;;5.60;3.35;;;7.70;99.90;;;;;;5037297;28;20022;-77
2023/11/15 11:50:58;;;;;;;9.07;6.53;;;7.70;99.90;;;;;;5038030;28;20057;-78
2023/11/15 11:53:24;;;;;;;5.25;3.50;;;7.80;99.90;;;;;;5037602;28;20023;-78
2023/11/15 11:55:55;;;;;;;7.35;3.78;;;7.80;99.90;;;;;;5037856;28;20061;-78
2023/11/15 11:58:22;;;;;;;5.97;4.63;;;7.80;99.90;;;;;;5037438;28;20096;-79
2023/11/15 12:00:48;;;;;;;12.68;7.63;;;7.70;99.90;;;;;;5037543;28;20503;-78
2023/11/15 12:03:15;;;;;;;4.70;2.90;;;7.80;99.90;;;;;;5037714;28;20039;-78
2023/11/15 12:05:41;;;;;;;4.68;2.47;;;7.70;99.90;;;;;;4970815;28;20393;-83
2023/11/15 12:08:07;;;;;;;3.50;2.28;;;7.70;99.90;;;;;;5037153;28;20031;-77
2023/11/15 12:10:34;;;;;;;16.77;7.32;;;7.70;99.90;;;;;;5037643;28;20018;-84
2023/11/15 12:12:59;;;;;;;4.60;2.67;;;7.70;99.90;;;;;;5037595;28;20035;-78
2023/11/15 12:15:25;;;;;;;4.18;2.10;;;7.70;99.90;;;;;;5030273;28;20429;-77
2023/11/15 12:17:54;;;;;;;3.35;2.33;;;7.70;99.90;;;;;;4966736;28;20026;-77
2023/11/15 12:20:27;;;;;;;6.63;4.97;;;7.70;99.90;;;;;;5030721;28;20054;-77
2023/11/15 12:23:17;;;;;;;16.98;12.75;;;7.60;99.90;;;;;;5030309;28;20481;-78
2023/11/15 12:25:48;;;;;;;4.50;2.75;;;7.60;99.90;;;;;;5027504;28;20085;-78
2023/11/15 12:28:16;;;;;;;7.37;4.43;;;7.60;99.90;;;;;;4967248;28;20085;-78
2023/11/15 12:30:43;;;;;;;20.98;12.73;;;7.50;99.90;;;;;;5034900;28;20606;-77
2023/11/15 12:33:12;;;;;;;8.45;4.40;;;7.50;99.90;;;;;;5036134;28;20015;-78
2023/11/15 12:35:42;;;;;;;3.15;2.80;;;7.40;99.90;;;;;;5033548;28;20066;-78
2023/11/15 12:38:11;;;;;;;3.78;2.67;;;7.40;99.90;;;;;;5034101;28;20085;-77
2023/11/15 12:40:38;;;;;;;2.97;2.10;;;7.30;99.90;;;;;;5035080;28;20378;-77
2023/11/15 12:43:13;;;;;;;3.90;2.80;;;7.30;99.90;;;;;;5038540;28;20046;-77
2023/11/15 12:45:40;;;;;;;2.70;2.50;;;7.20;99.90;;;;;;4972670;28;20043;-76
2023/11/15 12:48:07;;;;;;;3.05;2.70;;;7.20;99.90;;;;;;5036807;28;20026;-77
2023/11/15 12:50:36;;;;;;;4.65;4.05;;;7.20;99.90;;;;;;5049175;28;20034;-77
2023/11/15 12:53:17;;;;;;;3.17;2.97;;;7.20;99.90;;;;;;5039465;28;20023;-77